Time;durP1;ratioP1;P1;durP2;ratioP2;P2;SDS_P1;SDS_P2;PMS_P1;PMS_P2;Temp;Humidity;BMP_temperature;BMP_pressure;BME280_temperature;BME280_humidity;BME280_pressure;Samples;Min_cycle;Max_cycle;Signal;HPM_P1;HPM_P2
2022/05/15 00:01:12;;;;;;;;;;;16.00;89.70;;;;;;4961447;28;19926;-89
2022/05/15 00:03:44;;;;;;;;;;;16.00;90.10;;;;;;4979132;28;19910;-89
2022/05/15 00:06:13;;;;;;;;;;;16.00;89.50;;;;;;4967481;28;19936;-89
2022/05/15 00:08:47;;;;;;;;;;;16.00;89.70;;;;;;4967402;28;19914;-88
2022/05/15 00:11:18;;;;;;;;;;;16.00;90.00;;;;;;4965033;28;19911;-88
2022/05/15 00:13:51;;;;;;;;;;;14.50;89.20;;;;;;4981497;28;20031;-87
2022/05/15 00:16:25;;;;;;;;;;;15.90;90.10;;;;;;4979149;28;19926;-89
2022/05/15 00:18:55;;;;;;;;;;;15.90;89.60;;;;;;4944878;29;19933;-87
2022/05/15 00:21:26;;;;;;;;;;;15.90;90.10;;;;;;4974583;29;19937;-87
2022/05/15 00:23:56;;;;;;;;;;;15.90;89.70;;;;;;4962619;29;19927;-89
2022/05/15 00:29:43;;;;;;;;;;;15.10;89.20;;;;;;4952358;29;19934;-90
2022/05/15 00:32:12;;;;;;;;;;;16.00;89.70;;;;;;4952793;29;19923;-90
2022/05/15 00:34:40;;;;;;;;;;;16.00;90.00;;;;;;4952727;29;19926;-90
2022/05/15 00:37:10;;;;;;;;;;;16.00;89.50;;;;;;4935703;29;19933;-88
2022/05/15 00:39:41;;;;;;;;;;;14.90;89.40;;;;;;4954041;28;19933;-88
2022/05/15 00:42:11;;;;;;;;;;;15.90;90.10;;;;;;4972674;28;19949;-89
2022/05/15 00:44:40;;;;;;;;;;;15.80;90.10;;;;;;4939911;29;19933;-88
2022/05/15 00:47:07;;;;;;;;;;;15.70;90.20;;;;;;4923485;29;19926;-88
2022/05/15 00:49:37;;;;;;;;;;;15.80;90.20;;;;;;4938102;29;19938;-88
2022/05/15 00:52:07;;;;;;;;;;;15.80;90.70;;;;;;4938096;29;20378;-88
2022/05/15 00:54:39;;;;;;;;;;;15.80;90.70;;;;;;4937883;29;19938;-88
2022/05/15 00:57:06;;;;;;;;;;;15.70;90.70;;;;;;4956063;28;19941;-88
2022/05/15 00:59:39;;;;;;;;;;;15.70;90.50;;;;;;4940468;28;19933;-88
2022/05/15 01:02:09;;;;;;;;;;;13.90;90.50;;;;;;4939533;28;20017;-88
2022/05/15 01:04:39;;;;;;;;;;;14.80;90.60;;;;;;4940385;28;19937;-87
2022/05/15 01:07:11;;;;;;;;;;;15.60;90.80;;;;;;4941494;28;19934;-89
2022/05/15 01:09:42;;;;;;;;;;;15.60;90.90;;;;;;4929392;29;19930;-89
2022/05/15 01:12:14;;;;;;;;;;;15.60;91.00;;;;;;4921495;29;20275;-90
2022/05/15 01:14:45;;;;;;;;;;;15.60;91.00;;;;;;4938321;29;19933;-88
2022/05/15 01:17:13;;;;;;;;;;;15.60;90.70;;;;;;4939475;29;20283;-88
2022/05/15 01:19:44;;;;;;;;;;;15.80;91.20;;;;;;4926341;29;19931;-88
2022/05/15 01:22:15;;;;;;;;;;;15.60;91.40;;;;;;4942311;29;19933;-86
2022/05/15 01:24:44;;;;;;;;;;;15.60;91.00;;;;;;4944097;28;19937;-87
2022/05/15 01:27:13;;;;;;;;;;;15.60;90.80;;;;;;4952678;28;19926;-87
2022/05/15 01:29:44;;;;;;;;;;;15.50;91.00;;;;;;4918606;29;19927;-89
2022/05/15 01:32:15;;;;;;;;;;;15.50;91.20;;;;;;4923814;29;19939;-87
2022/05/15 01:35:01;;;;;;;;;;;15.50;91.40;;;;;;4943358;29;19934;-87
2022/05/15 01:37:30;;;;;;;;;;;15.40;91.20;;;;;;4928072;29;20004;-87
2022/05/15 01:40:02;;;;;;;;;;;15.40;91.70;;;;;;4896446;29;19927;-86
2022/05/15 01:42:30;;;;;;;;;;;15.40;91.90;;;;;;4936241;29;20505;-88
2022/05/15 01:45:00;;;;;;;;;;;15.30;91.80;;;;;;4925649;29;19927;-88
2022/05/15 01:47:28;;;;;;;;;;;15.40;91.70;;;;;;4922354;29;19933;-88
2022/05/15 01:49:57;;;;;;;;;;;15.30;91.80;;;;;;4940762;29;19948;-90
2022/05/15 01:52:26;;;;;;;;;;;15.20;91.80;;;;;;4925412;29;19930;-88
2022/05/15 01:54:55;;;;;;;;;;;14.40;92.20;;;;;;4924683;29;19926;-87
2022/05/15 01:57:26;;;;;;;;;;;15.20;92.10;;;;;;4925024;29;19926;-90
2022/05/15 01:59:54;;;;;;;;;;;14.70;91.90;;;;;;4941097;29;19927;-88
2022/05/15 02:02:22;;;;;;;;;;;15.20;92.70;;;;;;4907888;29;20580;-88
2022/05/15 02:04:50;;;;;;;;;;;15.20;92.40;;;;;;4939055;29;20301;-87
2022/05/15 02:07:18;;;;;;;;;;;15.20;92.20;;;;;;4938078;29;19930;-89
2022/05/15 02:09:46;;;;;;;;;;;15.20;92.70;;;;;;4937824;29;20040;-87
2022/05/15 02:12:14;;;;;;;;;;;15.10;92.40;;;;;;4927710;29;19926;-89
2022/05/15 02:14:44;;;;;;;;;;;15.10;93.00;;;;;;4938357;29;19926;-89
2022/05/15 02:17:12;;;;;;;;;;;15.30;92.70;;;;;;4922516;29;20201;-87
2022/05/15 02:19:39;;;;;;;;;;;15.00;93.30;;;;;;4939361;29;20405;-87
2022/05/15 02:22:12;;;;;;;;;;;15.00;93.00;;;;;;4919910;29;19931;-88
2022/05/15 02:24:41;;;;;;;;;;;14.90;93.30;;;;;;4942217;28;19933;-88
2022/05/15 02:27:09;;;;;;;;;;;14.90;93.70;;;;;;4926622;28;19937;-86
2022/05/15 02:29:37;;;;;;;;;;;14.90;93.40;;;;;;4942555;28;20390;-86
2022/05/15 02:32:08;;;;;;;;;;;14.80;93.50;;;;;;4941996;28;19937;-88
2022/05/15 02:34:38;;;;;;;;;;;14.80;93.90;;;;;;4939168;29;19926;-87
2022/05/15 02:37:07;;;;;;;;;;;14.90;93.60;;;;;;4921433;28;19941;-87
2022/05/15 02:39:40;;;;;;;;;;;14.90;93.50;;;;;;4968186;28;19922;-86
2022/05/15 02:42:10;;;;;;;;;;;15.00;93.40;;;;;;4928195;29;19927;-87
2022/05/15 02:44:39;;;;;;;;;;;14.90;93.50;;;;;;4971922;28;19925;-89
2022/05/15 02:47:09;;;;;;;;;;;15.00;93.50;;;;;;4924088;29;20390;-86
2022/05/15 02:52:24;;;;;;;;;;;15.00;93.50;;;;;;4917108;29;19927;-87
2022/05/15 02:54:55;;;;;;;;;;;15.10;93.50;;;;;;4927563;28;19930;-88
2022/05/15 02:57:23;;;;;;;;;;;15.00;93.40;;;;;;4955740;28;19926;-87
2022/05/15 02:59:51;;;;;;;;;;;15.00;93.20;;;;;;4955443;28;19930;-88
2022/05/15 03:02:23;;;;;;;;;;;15.10;93.20;;;;;;4956634;28;19933;-87
2022/05/15 03:04:52;;;;;;;;;;;14.30;92.80;;;;;;4956167;28;19926;-87
2022/05/15 03:07:24;;;;;;;;;;;15.20;93.00;;;;;;4973208;28;20334;-87
2022/05/15 03:09:54;;;;;;;;;;;15.20;92.90;;;;;;4924711;29;19927;-88
2022/05/15 03:12:22;;;;;;;;;;;15.30;92.70;;;;;;4937818;29;19931;-87
2022/05/15 03:14:56;;;;;;;;;;;15.30;93.20;;;;;;4905510;29;19927;-86
2022/05/15 03:17:30;;;;;;;;;;;15.30;92.70;;;;;;4920627;29;19938;-87
2022/05/15 03:20:03;;;;;;;;;;;15.40;92.90;;;;;;4931600;29;19930;-87
2022/05/15 03:22:33;;;;;;;;;;;15.30;92.80;;;;;;4928546;29;19937;-87
2022/05/15 03:25:08;;;;;;;;;;;15.30;92.90;;;;;;4907694;29;19936;-87
2022/05/15 03:27:39;;;;;;;;;;;15.30;93.00;;;;;;4926600;29;20402;-89
2022/05/15 03:30:11;;;;;;;;;;;15.50;93.50;;;;;;4922181;29;19942;-88
2022/05/15 03:32:39;;;;;;;;;;;15.20;92.90;;;;;;4922230;29;19927;-88
2022/05/15 03:35:08;;;;;;;;;;;15.20;92.90;;;;;;4927452;28;19937;-88
2022/05/15 03:37:36;;;;;;;;;;;15.50;93.10;;;;;;4961160;28;19934;-88
2022/05/15 03:40:05;;;;;;;;;;;14.90;93.40;;;;;;4932020;28;19933;-87
2022/05/15 03:42:39;;;;;;;;;;;14.00;92.90;;;;;;4935185;29;19926;-90
2022/05/15 03:45:15;;;;;;;;;;;15.20;93.30;;;;;;4931213;29;19965;-88
2022/05/15 03:47:44;;;;;;;;;;;15.20;93.20;;;;;;4931038;29;20404;-88
2022/05/15 03:50:12;;;;;;;;;;;15.20;93.20;;;;;;4930534;29;19937;-88
2022/05/15 03:52:49;;;;;;;;;;;15.20;93.20;;;;;;4963654;29;19982;-90
2022/05/15 03:55:22;;;;;;;;;;;15.20;93.20;;;;;;4928479;29;19926;-87
2022/05/15 03:57:55;;;;;;;;;;;15.20;93.30;;;;;;4947189;29;19934;-88
2022/05/15 04:00:29;;;;;;;;;;;15.30;93.90;;;;;;4931312;29;19927;-88
2022/05/15 04:03:03;;;;;;;;;;;15.20;93.70;;;;;;4900845;29;20413;-86
2022/05/15 04:05:40;;;;;;;;;;;15.20;93.50;;;;;;4927505;29;20397;-88
2022/05/15 04:08:16;;;;;;;;;;;15.10;93.50;;;;;;4947676;29;19926;-87
2022/05/15 04:10:47;;;;;;;;;;;15.20;93.60;;;;;;4933536;29;19926;-88
2022/05/15 04:13:18;;;;;;;;;;;15.10;93.50;;;;;;4946016;29;20084;-87
2022/05/15 04:18:47;;;;;;;;;;;15.10;93.40;;;;;;4929106;29;19926;-88
2022/05/15 04:21:26;;;;;;;;;;;15.10;93.40;;;;;;4936088;29;19950;-87
2022/05/15 04:23:59;;;;;;;;;;;15.10;93.60;;;;;;4949093;29;19933;-90
2022/05/15 04:26:27;;;;;;;;;;;14.70;93.30;;;;;;4965488;29;20374;-89
2022/05/15 04:28:57;;;;;;;;;;;15.50;93.60;;;;;;4959029;28;19926;-89
2022/05/15 04:31:25;;;;;;;;;;;15.10;93.50;;;;;;4946165;29;19927;-87
2022/05/15 04:33:53;;;;;;;;;;;15.10;93.80;;;;;;4914868;29;19938;-88
2022/05/15 04:36:22;;;;;;;;;;;15.10;93.80;;;;;;4922443;29;19934;-88
2022/05/15 04:38:52;;;;;;;;;;;14.60;93.40;;;;;;4927865;29;19927;-88
2022/05/15 04:41:23;;;;;;;;;;;14.60;93.50;;;;;;4914466;28;19930;-89
2022/05/15 04:43:56;;;;;;;;;;;15.30;93.60;;;;;;4949012;28;19937;-89
2022/05/15 04:46:29;;;;;;;;;;;15.20;93.60;;;;;;4951826;29;19922;-88
2022/05/15 04:49:02;;;;;;;;;;;15.20;93.60;;;;;;4925801;29;19950;-89
2022/05/15 04:51:29;;;;;;;;;;;16.20;94.10;;;;;;4920712;29;19927;-88
2022/05/15 04:53:59;;;;;;;;;;;15.10;93.90;;;;;;4946285;29;19930;-90
2022/05/15 04:56:28;;;;;;;;;;;15.10;94.20;;;;;;4980566;28;19930;-90
2022/05/15 04:58:56;;;;;;;;;;;15.10;94.60;;;;;;4924035;29;19927;-89
2022/05/15 05:01:27;;;;;;;;;;;15.00;94.40;;;;;;4917260;29;19930;-89
2022/05/15 05:04:00;;;;;;;;;;;15.00;94.60;;;;;;4928948;29;19930;-87
2022/05/15 05:06:30;;;;;;;;;;;15.00;95.00;;;;;;4923156;29;19955;-88
2022/05/15 05:08:59;;;;;;;;;;;14.60;94.80;;;;;;4910330;29;19927;-89
2022/05/15 05:11:29;;;;;;;;;;;15.00;95.30;;;;;;4917954;29;19934;-87
2022/05/15 05:14:02;;;;;;;;;;;15.00;95.30;;;;;;4921189;29;19934;-88
2022/05/15 05:16:31;;;;;;;;;;;15.00;95.20;;;;;;4933008;29;19927;-88
2022/05/15 05:19:00;;;;;;;;;;;15.00;95.50;;;;;;4920024;29;19928;-88
2022/05/15 05:21:28;;;;;;;;;;;15.00;95.50;;;;;;4921626;29;19923;-87
2022/05/15 05:23:55;;;;;;;;;;;15.00;96.00;;;;;;4917676;29;19931;-88
2022/05/15 05:26:27;;;;;;;;;;;14.90;96.10;;;;;;4900184;29;19927;-87
2022/05/15 05:28:54;;;;;;;;;;;15.00;96.50;;;;;;4890770;29;19928;-89
2022/05/15 05:31:22;;;;;;;;;;;15.00;96.70;;;;;;4904972;29;19937;-86
2022/05/15 05:33:56;;;;;;;;;;;15.00;96.70;;;;;;4920947;29;19927;-89
2022/05/15 05:36:26;;;;;;;;;;;15.10;97.60;;;;;;4942768;29;19927;-90
2022/05/15 05:38:58;;;;;;;;;;;15.00;96.90;;;;;;4924484;29;19923;-88
2022/05/15 05:41:29;;;;;;;;;;;15.00;97.00;;;;;;4921016;29;20383;-88
2022/05/15 05:44:01;;;;;;;;;;;15.00;97.60;;;;;;4907477;29;19949;-89
2022/05/15 05:46:45;;;;;;;;;;;14.50;97.80;;;;;;4934642;29;19926;-88
2022/05/15 05:49:23;;;;;;;;;;;15.00;97.70;;;;;;4926722;29;19926;-88
2022/05/15 05:52:16;;;;;;;;;;;15.20;97.80;;;;;;4930813;29;19934;-88
2022/05/15 05:54:49;;;;;;;;;;;15.10;98.20;;;;;;4892972;29;20418;-88
2022/05/15 05:57:48;;;;;;;;;;;15.20;98.40;;;;;;4950202;29;19927;-89
2022/05/15 06:00:53;;;;;;;;;;;15.30;98.40;;;;;;4933596;29;19942;-87
2022/05/15 06:07:12;;;;;;;;;;;14.50;98.60;;;;;;4953147;29;19927;-88
2022/05/15 06:10:07;;;;;;;;;;;15.40;98.60;;;;;;4940198;29;19937;-87
2022/05/15 06:13:05;;;;;;;;;;;15.30;98.90;;;;;;4940754;29;19922;-87
2022/05/15 06:16:35;;;;;;;;;;;15.30;99.20;;;;;;4940974;29;19914;-87
2022/05/15 06:19:14;;;;;;;;;;;15.60;99.20;;;;;;4941678;29;19915;-88
2022/05/15 06:21:44;;;;;;;;;;;15.30;99.20;;;;;;4957461;28;19929;-86
2022/05/15 06:24:15;;;;;;;;;;;15.70;99.90;;;;;;4924805;29;19941;-88
2022/05/15 06:26:49;;;;;;;;;;;15.30;99.70;;;;;;4924625;29;20358;-89
2022/05/15 06:29:18;;;;;;;;;;;15.30;99.90;;;;;;4957025;29;19922;-88
2022/05/15 06:31:47;;;;;;;;;;;15.30;99.90;;;;;;4892414;29;19950;-87
2022/05/15 06:34:17;;;;;;;;;;;14.90;99.90;;;;;;4919166;29;19931;-87
2022/05/15 06:37:22;;;;;;;;;;;15.30;99.90;;;;;;4904975;29;19927;-86
2022/05/15 06:39:52;;;;;;;;;;;15.20;99.90;;;;;;4905324;29;19927;-87
2022/05/15 06:42:21;;;;;;;;;;;15.20;99.90;;;;;;4930774;29;19926;-87
2022/05/15 06:45:00;;;;;;;;;;;15.40;99.90;;;;;;4946672;29;19926;-86
2022/05/15 06:47:44;;;;;;;;;;;15.20;99.90;;;;;;4936679;29;19939;-86
2022/05/15 06:50:15;;;;;;;;;;;15.30;99.90;;;;;;4920434;29;19927;-88
2022/05/15 06:52:47;;;;;;;;;;;15.20;99.90;;;;;;4921118;29;19918;-89
2022/05/15 06:55:21;;;;;;;;;;;15.20;99.90;;;;;;4930305;29;19917;-89
2022/05/15 06:57:51;;;;;;;;;;;15.40;99.90;;;;;;4917558;29;19925;-88
2022/05/15 07:00:25;;;;;;;;;;;15.50;99.90;;;;;;4920102;29;19931;-89
2022/05/15 07:03:00;;;;;;;;;;;15.30;99.90;;;;;;4899679;29;19934;-91
2022/05/15 07:05:31;;;;;;;;;;;15.70;99.90;;;;;;4922099;29;19928;-90
2022/05/15 07:08:33;;;;;;;;;;;15.80;99.90;;;;;;4929600;29;19938;-90
2022/05/15 07:11:03;;;;;;;;;;;14.80;99.90;;;;;;4921041;28;19938;-91
2022/05/15 07:13:32;;;;;;;;;;;16.00;99.90;;;;;;4899408;29;19930;-92
2022/05/15 07:16:00;;;;;;;;;;;16.00;99.90;;;;;;4912302;29;19922;-91
2022/05/15 07:18:31;;;;;;;;;;;16.40;99.90;;;;;;4949084;29;19934;-93
2022/05/15 07:21:03;;;;;;;;;;;16.20;99.90;;;;;;4938443;29;20047;-89
2022/05/15 07:23:31;;;;;;;;;;;16.30;99.90;;;;;;4903309;29;19927;-91
2022/05/15 07:26:04;;;;;;;;;;;16.30;99.90;;;;;;4916625;29;19928;-91
2022/05/15 07:28:42;;;;;;;;;;;17.00;99.90;;;;;;4937885;29;19933;-92
2022/05/15 07:31:10;;;;;;;;;;;16.40;99.90;;;;;;4952121;29;19927;-89
2022/05/15 07:33:42;;;;;;;;;;;16.40;99.90;;;;;;4936204;29;19927;-88
2022/05/15 07:36:14;;;;;;;;;;;16.50;99.90;;;;;;4947578;29;19942;-87
2022/05/15 07:38:45;;;;;;;;;;;16.50;99.90;;;;;;4916549;29;20307;-86
2022/05/15 07:41:24;;;;;;;;;;;17.20;99.80;;;;;;4932191;29;19931;-90
2022/05/15 07:43:55;;;;;;;;;;;16.70;99.90;;;;;;4914667;29;19938;-89
2022/05/15 07:46:23;;;;;;;;;;;16.90;99.70;;;;;;4942916;29;19930;-87
2022/05/15 07:48:54;;;;;;;;;;;16.90;99.70;;;;;;4939254;29;19934;-88
2022/05/15 07:51:31;;;;;;;;;;;17.00;99.50;;;;;;4936094;29;19927;-90
2022/05/15 07:54:03;;;;;;;;;;;17.00;99.40;;;;;;4934984;29;19927;-91
2022/05/15 07:56:32;;;;;;;;;;;17.20;99.40;;;;;;4952315;29;19941;-89
2022/05/15 07:59:14;;;;;;;;;;;17.20;99.10;;;;;;4936663;29;19927;-87
2022/05/15 08:01:42;;;;;;;;;;;17.30;98.90;;;;;;4942002;29;20199;-88
2022/05/15 08:04:13;;;;;;;;;;;17.30;98.70;;;;;;4886975;29;19928;-92
2022/05/15 08:09:33;;;;;;;;;;;16.80;98.70;;;;;;4957866;29;19935;-88
2022/05/15 08:12:05;;;;;;;;;;;17.30;98.80;;;;;;4926988;29;19932;-89
2022/05/15 08:15:04;;;;;;;;;;;17.20;98.80;;;;;;4900325;29;19942;-91
2022/05/15 08:17:33;;;;;;;;;;;17.30;98.90;;;;;;4929516;29;19998;-87
2022/05/15 08:25:49;;;;;;;;;;;17.40;99.40;;;;;;4932481;29;19931;-88
2022/05/15 08:31:43;;;;;;;;;;;17.40;99.70;;;;;;4933921;29;19931;-88
2022/05/15 08:34:15;;;;;;;;;;;17.20;99.90;;;;;;4929282;29;19935;-89
2022/05/15 08:36:47;;;;;;;;;;;17.20;99.90;;;;;;4927420;29;19939;-86
2022/05/15 08:39:25;;;;;;;;;;;17.20;99.90;;;;;;4914497;29;19927;-87
2022/05/15 08:42:16;;;;;;;;;;;17.50;99.90;;;;;;4927079;29;19934;-88
2022/05/15 08:45:01;;;;;;;;;;;17.30;99.90;;;;;;4969635;23;19930;-84
2022/05/15 08:47:35;;;;;;;;;;;17.40;99.90;;;;;;4944664;28;19930;-87
2022/05/15 08:50:15;;;;;;;;;;;17.20;99.90;;;;;;4963312;28;19926;-86
2022/05/15 08:52:52;;;;;;;;;;;17.50;99.90;;;;;;4948441;28;19926;-85
2022/05/15 08:55:24;;;;;;;;;;;17.50;99.90;;;;;;4957268;28;19930;-84
2022/05/15 08:57:57;;;;;;;;;;;17.60;99.90;;;;;;4959883;28;20007;-87
2022/05/15 09:00:31;;;;;;;;;;;17.60;99.90;;;;;;4967182;28;19930;-88
2022/05/15 09:03:06;;;;;;;;;;;17.70;99.90;;;;;;4952095;28;19927;-86
2022/05/15 09:05:34;;;;;;;;;;;17.80;99.90;;;;;;4973225;28;19941;-88
2022/05/15 09:08:31;;;;;;;;;;;17.90;99.90;;;;;;4962326;28;20051;-83
2022/05/15 09:11:01;;;;;;;;;;;18.10;99.90;;;;;;4927256;28;19950;-85
2022/05/15 09:13:39;;;;;;;;;;;18.00;99.90;;;;;;4945103;28;19946;-84
2022/05/15 09:16:16;;;;;;;;;;;18.10;99.90;;;;;;4938032;28;20290;-85
2022/05/15 09:18:44;;;;;;;;;;;18.30;99.60;;;;;;4951305;28;20122;-89
2022/05/15 09:21:14;;;;;;;;;;;18.40;99.50;;;;;;4967812;28;20289;-85
2022/05/15 09:23:49;;;;;;;;;;;18.50;99.20;;;;;;4954930;28;19926;-84
2022/05/15 09:26:20;;;;;;;;;;;18.60;99.00;;;;;;4949639;28;19930;-85
2022/05/15 09:28:52;;;;;;;;;;;18.70;98.90;;;;;;4950644;28;20389;-92
2022/05/15 09:31:24;;;;;;;;;;;18.80;98.60;;;;;;4961646;28;19930;-85
2022/05/15 09:33:55;;;;;;;;;;;18.90;98.60;;;;;;4930227;28;21430;-83
2022/05/15 09:36:39;;;;;;;;;;;19.00;98.50;;;;;;4939673;28;19934;-91
2022/05/15 09:39:10;;;;;;;;;;;19.10;98.00;;;;;;4943204;29;19930;-85
2022/05/15 09:44:31;;;;;;;;;;;19.20;97.50;;;;;;4938038;28;19933;-86
2022/05/15 09:47:00;;;;;;;;;;;19.20;97.60;;;;;;4968553;28;20294;-89
2022/05/15 09:49:32;;;;;;;;;;;19.20;97.30;;;;;;4967233;28;19930;-90
2022/05/15 09:52:01;;;;;;;;;;;19.20;97.30;;;;;;4969492;28;19930;-85
2022/05/15 09:54:36;;;;;;;;;;;19.10;97.10;;;;;;4964330;28;19930;-83
2022/05/15 09:57:27;;;;;;;;;;;19.10;97.40;;;;;;4970176;28;19934;-84
2022/05/15 10:00:03;;;;;;;;;;;19.10;97.40;;;;;;4959219;28;19934;-84
2022/05/15 10:02:43;;;;;;;;;;;19.00;97.30;;;;;;4972289;28;20275;-84
2022/05/15 10:05:15;;;;;;;;;;;19.00;97.40;;;;;;4973284;28;19926;-89
2022/05/15 10:07:51;;;;;;;;;;;19.00;97.50;;;;;;4963893;28;19934;-91
2022/05/15 10:10:23;;;;;;;;;;;19.00;97.50;;;;;;4977589;28;20396;-84
2022/05/15 10:12:56;;;;;;;;;;;19.00;97.50;;;;;;4946624;28;19927;-91
2022/05/15 10:15:26;;;;;;;;;;;18.90;97.50;;;;;;4968297;28;19933;-84
2022/05/15 10:17:55;;;;;;;;;;;18.80;97.70;;;;;;4951670;28;19934;-86
2022/05/15 10:20:23;;;;;;;;;;;18.80;97.80;;;;;;4969640;28;20468;-83
2022/05/15 10:23:06;;;;;;;;;;;18.80;98.20;;;;;;4956982;28;19930;-90
2022/05/15 10:25:45;;;;;;;;;;;18.80;98.40;;;;;;4959258;28;19927;-87
2022/05/15 10:28:14;;;;;;;;;;;18.80;98.80;;;;;;4971628;28;19957;-85
2022/05/15 10:30:49;;;;;;;;;;;18.80;99.00;;;;;;4972453;28;19936;-89
2022/05/15 10:33:19;;;;;;;;;;;18.80;99.80;;;;;;4946879;28;19942;-85
2022/05/15 10:36:01;;;;;;;;;;;18.80;99.90;;;;;;4969549;28;19933;-83
2022/05/15 10:38:29;;;;;;;;;;;18.70;99.90;;;;;;4945559;28;19927;-84
2022/05/15 10:41:19;;;;;;;;;;;18.60;99.90;;;;;;4959728;28;20384;-87
2022/05/15 10:44:05;;;;;;;;;;;18.50;99.90;;;;;;4936218;28;19926;-86
2022/05/15 10:47:01;;;;;;;;;;;18.60;99.90;;;;;;4965857;28;19926;-83
2022/05/15 10:49:47;;;;;;;;;;;18.50;99.90;;;;;;4960856;28;19934;-85
2022/05/15 10:52:24;;;;;;;;;;;18.40;99.90;;;;;;4953975;28;19926;-86
2022/05/15 10:58:12;;;;;;;;;;;18.20;99.90;;;;;;4967495;28;19930;-84
2022/05/15 11:00:47;;;;;;;;;;;18.10;99.90;;;;;;4969989;28;19946;-84
2022/05/15 11:03:27;;;;;;;;;;;18.00;99.90;;;;;;4918126;28;19929;-85
2022/05/15 11:05:54;;;;;;;;;;;18.00;99.90;;;;;;4967759;28;19926;-84
2022/05/15 11:08:44;;;;;;;;;;;18.00;99.90;;;;;;4955733;28;19926;-87
2022/05/15 11:11:12;;;;;;;;;;;18.00;99.90;;;;;;4952777;28;19930;-89
2022/05/15 11:13:42;;;;;;;;;;;18.10;99.90;;;;;;4962462;28;19954;-85
2022/05/15 11:16:14;;;;;;;;;;;18.10;99.90;;;;;;4944008;28;19935;-87
2022/05/15 11:18:44;;;;;;;;;;;18.00;99.90;;;;;;4952989;28;19937;-83
2022/05/15 11:21:34;;;;;;;;;;;18.00;99.90;;;;;;4932324;28;19937;-84
2022/05/15 11:24:11;;;;;;;;;;;18.00;99.90;;;;;;4951105;28;19926;-89
2022/05/15 11:26:46;;;;;;;;;;;18.00;99.90;;;;;;4933704;28;19930;-82
2022/05/15 11:29:15;;;;;;;;;;;17.90;99.90;;;;;;4949787;28;19938;-84
2022/05/15 11:31:44;;;;;;;;;;;18.00;99.90;;;;;;4935952;28;20032;-84
2022/05/15 11:34:14;;;;;;;;;;;18.00;99.90;;;;;;4967678;28;19934;-82
2022/05/15 11:36:43;;;;;;;;;;;18.00;99.90;;;;;;4947563;28;19945;-86
2022/05/15 11:39:14;;;;;;;;;;;18.00;99.90;;;;;;4946207;28;19937;-85
2022/05/15 11:41:44;;;;;;;;;;;18.10;99.90;;;;;;4927687;28;19934;-87
2022/05/15 11:44:18;;;;;;;;;;;18.10;99.90;;;;;;4931726;28;19950;-88
2022/05/15 11:46:45;;;;;;;;;;;18.10;99.90;;;;;;4937554;28;19941;-83
2022/05/15 11:49:15;;;;;;;;;;;18.10;99.90;;;;;;4949464;28;20472;-84
2022/05/15 11:51:57;;;;;;;;;;;18.10;99.90;;;;;;4965914;28;20404;-86
2022/05/15 11:54:29;;;;;;;;;;;18.20;99.90;;;;;;4930817;28;19929;-87
2022/05/15 11:56:57;;;;;;;;;;;18.20;99.90;;;;;;4964835;28;19926;-85
2022/05/15 11:59:27;;;;;;;;;;;18.30;99.90;;;;;;4953668;28;19937;-87
2022/05/15 12:01:59;;;;;;;;;;;18.40;99.90;;;;;;4950700;28;19926;-88
2022/05/15 12:04:33;;;;;;;;;;;18.50;99.90;;;;;;4951679;28;19926;-90
2022/05/15 12:07:00;;;;;;;;;;;18.50;99.90;;;;;;4967617;28;19926;-85
2022/05/15 12:09:40;;;;;;;;;;;18.70;99.90;;;;;;4946012;28;19934;-86
2022/05/15 12:12:24;;;;;;;;;;;18.80;99.90;;;;;;4951103;28;19934;-87
2022/05/15 12:15:13;;;;;;;;;;;18.80;99.90;;;;;;4931729;28;19931;-85
2022/05/15 12:18:06;;;;;;;;;;;18.90;99.90;;;;;;4970625;28;19930;-86
2022/05/15 12:20:35;;;;;;;;;;;18.90;99.90;;;;;;4945470;28;19926;-88
2022/05/15 12:23:17;;;;;;;;;;;18.90;99.90;;;;;;4956711;28;19933;-88
2022/05/15 12:25:51;;;;;;;;;;;18.90;99.90;;;;;;4968282;28;20290;-90
2022/05/15 12:31:16;;;;;;;;;;;18.90;99.90;;;;;;4952790;28;19926;-89
2022/05/15 12:34:22;;;;;;;;;;;19.00;99.90;;;;;;4938332;28;19938;-87
2022/05/15 12:37:00;;;;;;;;;;;19.00;99.90;;;;;;4936401;28;19930;-89
2022/05/15 12:39:40;;;;;;;;;;;19.00;99.90;;;;;;4967924;28;19930;-87
2022/05/15 12:42:12;;;;;;;;;;;19.00;99.90;;;;;;4956919;28;19930;-88
2022/05/15 12:44:41;;;;;;;;;;;19.10;99.90;;;;;;4931109;28;19926;-89
2022/05/15 12:47:33;;;;;;;;;;;19.10;99.90;;;;;;4981054;28;19945;-84
2022/05/15 12:50:08;;;;;;;;;;;19.10;99.90;;;;;;4979657;28;19941;-91
2022/05/15 12:52:36;;;;;;;;;;;19.00;99.90;;;;;;4937738;28;19931;-89
2022/05/15 12:55:06;;;;;;;;;;;19.00;99.90;;;;;;4947411;28;20242;-92
2022/05/15 12:57:44;;;;;;;;;;;18.90;99.90;;;;;;4949763;28;19926;-91
2022/05/15 13:00:14;;;;;;;;;;;18.90;99.90;;;;;;4938251;28;19930;-92
2022/05/15 13:02:43;;;;;;;;;;;18.80;99.90;;;;;;4939702;28;20313;-82
2022/05/15 13:05:25;;;;;;;;;;;18.70;99.90;;;;;;4973652;28;19949;-90
2022/05/15 13:07:55;;;;;;;;;;;18.60;99.90;;;;;;4953090;28;19934;-90
2022/05/15 13:10:32;;;;;;;;;;;18.50;99.90;;;;;;4968717;28;19926;-93
2022/05/15 13:13:03;;;;;;;;;;;18.50;99.90;;;;;;4954407;28;20468;-90
2022/05/15 13:15:36;;;;;;;;;;;18.40;99.90;;;;;;4983210;28;19926;-87
2022/05/15 13:18:08;;;;;;;;;;;18.40;99.90;;;;;;4960407;28;19926;-91
2022/05/15 13:20:39;;;;;;;;;;;18.30;99.90;;;;;;4937228;28;20390;-85
2022/05/15 13:23:11;;;;;;;;;;;18.30;99.90;;;;;;4935737;28;19930;-87
2022/05/15 13:25:41;;;;;;;;;;;18.20;99.90;;;;;;4956813;28;19937;-87
2022/05/15 13:28:17;;;;;;;;;;;18.20;99.90;;;;;;4928473;28;19922;-89
2022/05/15 13:30:51;;;;;;;;;;;18.10;99.90;;;;;;4957946;28;19930;-89
2022/05/15 13:33:26;;;;;;;;;;;18.10;99.90;;;;;;4940274;28;19941;-92
2022/05/15 13:35:57;;;;;;;;;;;18.00;99.90;;;;;;4936810;28;19930;-92
2022/05/15 13:44:36;;;;;;;;;;;17.90;99.90;;;;;;4956271;28;19937;-91
2022/05/15 13:47:14;;;;;;;;;;;17.80;99.90;;;;;;4944162;28;19926;-91
2022/05/15 13:49:49;;;;;;;;;;;17.80;99.90;;;;;;4927905;28;19927;-93
2022/05/15 13:52:24;;;;;;;;;;;17.80;99.90;;;;;;4945156;28;19942;-91
2022/05/15 13:54:52;;;;;;;;;;;17.90;99.90;;;;;;4936311;28;19937;-91
2022/05/15 13:57:23;;;;;;;;;;;17.80;99.90;;;;;;4946415;28;19933;-91
2022/05/15 14:00:09;;;;;;;;;;;17.80;99.90;;;;;;4929735;28;19937;-92
2022/05/15 14:02:59;;;;;;;;;;;17.80;99.90;;;;;;4937978;29;19934;-92
2022/05/15 14:05:33;;;;;;;;;;;17.70;99.90;;;;;;4965688;28;19930;-92
2022/05/15 14:08:08;;;;;;;;;;;17.70;99.90;;;;;;4968492;29;20279;-91
2022/05/15 14:10:39;;;;;;;;;;;17.50;99.90;;;;;;4944392;28;19933;-91
2022/05/15 14:13:08;;;;;;;;;;;17.60;99.90;;;;;;4957930;28;19930;-91
2022/05/15 14:15:48;;;;;;;;;;;17.60;99.90;;;;;;4933221;28;19926;-91
2022/05/15 14:18:36;;;;;;;;;;;17.50;99.90;;;;;;4938867;29;20717;-92
2022/05/15 14:21:14;;;;;;;;;;;17.50;99.90;;;;;;4937117;29;19933;-91
2022/05/15 14:23:42;;;;;;;;;;;17.50;99.90;;;;;;4944278;28;19927;-90
2022/05/15 14:26:12;;;;;;;;;;;17.50;99.90;;;;;;4938474;28;19926;-89
2022/05/15 14:28:40;;;;;;;;;;;16.30;99.90;;;;;;4960864;28;19934;-89
2022/05/15 14:31:09;;;;;;;;;;;17.60;99.90;;;;;;4969150;28;19930;-88
2022/05/15 14:33:39;;;;;;;;;;;17.40;99.90;;;;;;4941825;28;19949;-90
2022/05/15 14:36:10;;;;;;;;;;;17.60;99.90;;;;;;4921626;28;19930;-90
2022/05/15 14:38:38;;;;;;;;;;;17.60;99.90;;;;;;4934589;28;19927;-88
2022/05/15 14:41:08;;;;;;;;;;;17.60;99.90;;;;;;4927017;28;20282;-89
2022/05/15 14:43:39;;;;;;;;;;;17.60;99.90;;;;;;4926392;28;19930;-90
2022/05/15 14:46:16;;;;;;;;;;;17.60;99.90;;;;;;4935238;28;19927;-92
2022/05/15 14:48:45;;;;;;;;;;;17.60;99.90;;;;;;4934660;28;19933;-91
2022/05/15 14:51:16;;;;;;;;;;;17.50;99.90;;;;;;4944551;28;19926;-90
2022/05/15 14:53:50;;;;;;;;;;;17.50;99.90;;;;;;4936443;28;21955;-91
2022/05/15 14:56:18;;;;;;;;;;;17.50;99.90;;;;;;4940720;28;19926;-92
2022/05/15 14:58:55;;;;;;;;;;;17.50;99.90;;;;;;4935363;28;19926;-92
2022/05/15 15:01:23;;;;;;;;;;;17.40;99.90;;;;;;4937862;28;19950;-91
2022/05/15 15:03:51;;;;;;;;;;;17.40;99.90;;;;;;4939271;28;19927;-92
2022/05/15 15:06:20;;;;;;;;;;;17.40;99.90;;;;;;4921886;28;19930;-91
2022/05/15 15:08:49;;;;;;;;;;;17.40;99.90;;;;;;5033706;23;20307;-89
2022/05/15 15:11:31;;;;;;;;;;;17.40;99.90;;;;;;4924833;29;19927;-88
2022/05/15 15:14:04;;;;;;;;;;;17.50;99.90;;;;;;4925376;28;19938;-86
2022/05/15 15:16:39;;;;;;;;;;;17.50;99.90;;;;;;4937423;28;19927;-85
2022/05/15 15:19:12;;;;;;;;;;;17.60;99.90;;;;;;4969883;28;19926;-84
2022/05/15 15:21:51;;;;;;;;;;;17.60;99.90;;;;;;4929681;28;19934;-83
2022/05/15 15:24:22;;;;;;;;;;;17.60;99.90;;;;;;4915005;28;19930;-86
2022/05/15 15:27:11;;;;;;;;;;;17.70;99.90;;;;;;4917528;29;19927;-84
2022/05/15 15:29:41;;;;;;;;;;;17.70;99.90;;;;;;4920136;28;19930;-85
2022/05/15 15:32:09;;;;;;;;;;;18.00;99.90;;;;;;4932675;28;19930;-87